sensor_id;sensor_type;location;lat;lon;timestamp;temperature;humidity
7028;DHT22;3555;53.248;10.336;2023-07-31T00:01:45;14.60;99.90
7028;DHT22;3555;53.248;10.336;2023-07-31T00:04:12;14.60;99.90
7028;DHT22;3555;53.248;10.336;2023-07-31T00:06:39;14.60;99.90
7028;DHT22;3555;53.248;10.336;2023-07-31T00:09:06;14.60;99.90
7028;DHT22;3555;53.248;10.336;2023-07-31T00:11:33;14.70;99.90
7028;DHT22;3555;53.248;10.336;2023-07-31T00:14:01;14.70;99.90
7028;DHT22;3555;53.248;10.336;2023-07-31T00:16:28;14.70;99.90
7028;DHT22;3555;53.248;10.336;2023-07-31T00:18:55;14.70;99.90
7028;DHT22;3555;53.248;10.336;2023-07-31T00:21:22;14.70;99.90
7028;DHT22;3555;53.248;10.336;2023-07-31T00:23:49;14.70;99.90
7028;DHT22;3555;53.248;10.336;2023-07-31T00:26:15;14.80;99.90
7028;DHT22;3555;53.248;10.336;2023-07-31T00:28:42;14.80;99.90
7028;DHT22;3555;53.248;10.336;2023-07-31T00:31:11;14.80;99.90
7028;DHT22;3555;53.248;10.336;2023-07-31T00:33:38;14.70;99.90
7028;DHT22;3555;53.248;10.336;2023-07-31T00:36:05;14.70;99.90
7028;DHT22;3555;53.248;10.336;2023-07-31T00:38:31;14.70;99.90
7028;DHT22;3555;53.248;10.336;2023-07-31T00:40:58;14.50;99.90
7028;DHT22;3555;53.248;10.336;2023-07-31T00:43:25;14.50;99.90
7028;DHT22;3555;53.248;10.336;2023-07-31T00:45:52;14.50;99.90
7028;DHT22;3555;53.248;10.336;2023-07-31T00:48:21;14.50;99.90
7028;DHT22;3555;53.248;10.336;2023-07-31T00:50:48;14.60;99.90
7028;DHT22;3555;53.248;10.336;2023-07-31T00:53:15;14.60;99.90
7028;DHT22;3555;53.248;10.336;2023-07-31T00:55:42;14.70;99.90
7028;DHT22;3555;53.248;10.336;2023-07-31T00:58:10;14.70;99.90
7028;DHT22;3555;53.248;10.336;2023-07-31T01:00:37;14.80;99.90
7028;DHT22;3555;53.248;10.336;2023-07-31T01:03:03;14.80;99.90
7028;DHT22;3555;53.248;10.336;2023-07-31T01:05:39;14.90;99.90
7028;DHT22;3555;53.248;10.336;2023-07-31T01:08:15;15.00;99.90
7028;DHT22;3555;53.248;10.336;2023-07-31T01:10:50;15.00;99.90
7028;DHT22;3555;53.248;10.336;2023-07-31T01:13:21;15.20;99.90
7028;DHT22;3555;53.248;10.336;2023-07-31T01:15:48;15.20;99.90
7028;DHT22;3555;53.248;10.336;2023-07-31T01:18:15;15.10;99.90
7028;DHT22;3555;53.248;10.336;2023-07-31T01:20:46;15.10;99.90
7028;DHT22;3555;53.248;10.336;2023-07-31T01:23:35;15.10;99.90
7028;DHT22;3555;53.248;10.336;2023-07-31T01:26:16;15.20;99.90
7028;DHT22;3555;53.248;10.336;2023-07-31T01:28:53;15.30;99.90
7028;DHT22;3555;53.248;10.336;2023-07-31T01:31:23;15.20;99.90
7028;DHT22;3555;53.248;10.336;2023-07-31T01:33:53;15.30;99.90
7028;DHT22;3555;53.248;10.336;2023-07-31T01:36:21;15.20;99.90
7028;DHT22;3555;53.248;10.336;2023-07-31T01:38:48;15.20;99.90
7028;DHT22;3555;53.248;10.336;2023-07-31T01:41:18;15.20;99.90
7028;DHT22;3555;53.248;10.336;2023-07-31T01:43:45;15.30;99.90
7028;DHT22;3555;53.248;10.336;2023-07-31T01:46:12;15.30;99.90
7028;DHT22;3555;53.248;10.336;2023-07-31T01:48:39;15.30;99.90
7028;DHT22;3555;53.248;10.336;2023-07-31T01:51:06;15.30;99.90
7028;DHT22;3555;53.248;10.336;2023-07-31T01:53:33;15.30;99.90
7028;DHT22;3555;53.248;10.336;2023-07-31T01:56:00;15.40;99.90
7028;DHT22;3555;53.248;10.336;2023-07-31T01:58:28;15.40;99.90
7028;DHT22;3555;53.248;10.336;2023-07-31T02:00:55;15.40;99.90
7028;DHT22;3555;53.248;10.336;2023-07-31T02:03:21;15.40;99.90
7028;DHT22;3555;53.248;10.336;2023-07-31T02:05:49;15.40;99.90
7028;DHT22;3555;53.248;10.336;2023-07-31T02:08:16;15.50;99.90
7028;DHT22;3555;53.248;10.336;2023-07-31T02:10:43;15.50;99.90
7028;DHT22;3555;53.248;10.336;2023-07-31T02:13:10;15.50;99.90
7028;DHT22;3555;53.248;10.336;2023-07-31T02:15:38;15.50;99.90
7028;DHT22;3555;53.248;10.336;2023-07-31T02:18:05;15.50;99.90
7028;DHT22;3555;53.248;10.336;2023-07-31T02:20:34;15.40;99.90
7028;DHT22;3555;53.248;10.336;2023-07-31T02:23:01;15.40;99.90
7028;DHT22;3555;53.248;10.336;2023-07-31T02:25:28;15.40;99.90
7028;DHT22;3555;53.248;10.336;2023-07-31T02:27:55;15.40;99.90
7028;DHT22;3555;53.248;10.336;2023-07-31T02:30:22;15.40;99.90
7028;DHT22;3555;53.248;10.336;2023-07-31T02:32:50;15.40;99.90
7028;DHT22;3555;53.248;10.336;2023-07-31T02:35:17;15.40;99.90
7028;DHT22;3555;53.248;10.336;2023-07-31T02:37:44;15.40;99.90
7028;DHT22;3555;53.248;10.336;2023-07-31T02:40:11;15.30;99.90
7028;DHT22;3555;53.248;10.336;2023-07-31T02:42:38;15.30;99.90
7028;DHT22;3555;53.248;10.336;2023-07-31T02:45:06;15.20;99.90
7028;DHT22;3555;53.248;10.336;2023-07-31T02:47:33;15.10;99.90
7028;DHT22;3555;53.248;10.336;2023-07-31T02:50:02;15.20;99.90
7028;DHT22;3555;53.248;10.336;2023-07-31T02:52:29;15.20;99.90
7028;DHT22;3555;53.248;10.336;2023-07-31T02:54:56;15.10;99.90
7028;DHT22;3555;53.248;10.336;2023-07-31T02:57:23;15.10;99.90
7028;DHT22;3555;53.248;10.336;2023-07-31T02:59:50;15.00;99.90
7028;DHT22;3555;53.248;10.336;2023-07-31T03:02:17;15.10;99.90
7028;DHT22;3555;53.248;10.336;2023-07-31T03:04:44;15.10;99.90
7028;DHT22;3555;53.248;10.336;2023-07-31T03:07:12;15.10;99.90
7028;DHT22;3555;53.248;10.336;2023-07-31T03:09:39;15.10;99.90
7028;DHT22;3555;53.248;10.336;2023-07-31T03:12:07;15.20;99.90
7028;DHT22;3555;53.248;10.336;2023-07-31T03:14:34;15.20;99.90
7028;DHT22;3555;53.248;10.336;2023-07-31T03:17:01;15.30;99.90
7028;DHT22;3555;53.248;10.336;2023-07-31T03:19:30;15.20;99.90
7028;DHT22;3555;53.248;10.336;2023-07-31T03:21:57;15.20;99.90
7028;DHT22;3555;53.248;10.336;2023-07-31T03:24:25;15.20;99.90
7028;DHT22;3555;53.248;10.336;2023-07-31T03:26:52;15.20;99.90
7028;DHT22;3555;53.248;10.336;2023-07-31T03:29:19;15.20;99.90
7028;DHT22;3555;53.248;10.336;2023-07-31T03:31:46;15.20;99.90
7028;DHT22;3555;53.248;10.336;2023-07-31T03:34:13;15.20;99.90
7028;DHT22;3555;53.248;10.336;2023-07-31T03:36:40;15.30;99.90
7028;DHT22;3555;53.248;10.336;2023-07-31T03:39:07;15.20;99.90
7028;DHT22;3555;53.248;10.336;2023-07-31T03:41:35;15.20;99.90
7028;DHT22;3555;53.248;10.336;2023-07-31T03:44:02;15.20;99.90
7028;DHT22;3555;53.248;10.336;2023-07-31T03:46:29;15.20;99.90
7028;DHT22;3555;53.248;10.336;2023-07-31T03:48:56;15.20;99.90
7028;DHT22;3555;53.248;10.336;2023-07-31T03:51:23;15.20;99.90
7028;DHT22;3555;53.248;10.336;2023-07-31T03:53:49;15.20;99.90
7028;DHT22;3555;53.248;10.336;2023-07-31T03:56:16;15.20;99.90
7028;DHT22;3555;53.248;10.336;2023-07-31T03:58:45;15.20;99.90
7028;DHT22;3555;53.248;10.336;2023-07-31T04:01:11;15.30;99.90
7028;DHT22;3555;53.248;10.336;2023-07-31T04:03:38;15.30;99.90
7028;DHT22;3555;53.248;10.336;2023-07-31T04:06:05;15.30;99.90
7028;DHT22;3555;53.248;10.336;2023-07-31T04:08:33;15.20;99.90
7028;DHT22;3555;53.248;10.336;2023-07-31T04:11:00;15.10;99.90
7028;DHT22;3555;53.248;10.336;2023-07-31T04:13:28;15.10;99.90
7028;DHT22;3555;53.248;10.336;2023-07-31T04:15:57;15.10;99.90
7028;DHT22;3555;53.248;10.336;2023-07-31T04:18:24;15.10;99.90
7028;DHT22;3555;53.248;10.336;2023-07-31T04:20:51;15.10;99.90
7028;DHT22;3555;53.248;10.336;2023-07-31T04:23:18;15.20;99.90
7028;DHT22;3555;53.248;10.336;2023-07-31T04:25:45;15.20;99.90
7028;DHT22;3555;53.248;10.336;2023-07-31T04:28:12;15.20;99.90
7028;DHT22;3555;53.248;10.336;2023-07-31T04:30:39;15.30;99.90
7028;DHT22;3555;53.248;10.336;2023-07-31T04:33:07;15.40;99.90
7028;DHT22;3555;53.248;10.336;2023-07-31T04:35:34;15.40;99.90
7028;DHT22;3555;53.248;10.336;2023-07-31T04:38:01;15.30;99.90
7028;DHT22;3555;53.248;10.336;2023-07-31T04:40:28;15.40;99.90
7028;DHT22;3555;53.248;10.336;2023-07-31T04:42:55;15.30;99.90
7028;DHT22;3555;53.248;10.336;2023-07-31T04:45:22;15.30;99.90
7028;DHT22;3555;53.248;10.336;2023-07-31T04:47:48;15.30;99.90
7028;DHT22;3555;53.248;10.336;2023-07-31T04:50:17;15.30;99.90
7028;DHT22;3555;53.248;10.336;2023-07-31T04:52:44;15.30;99.90
7028;DHT22;3555;53.248;10.336;2023-07-31T04:55:11;15.40;99.90
7028;DHT22;3555;53.248;10.336;2023-07-31T04:57:38;15.30;99.90
7028;DHT22;3555;53.248;10.336;2023-07-31T05:00:06;15.30;99.90
7028;DHT22;3555;53.248;10.336;2023-07-31T05:02:33;15.30;99.90
7028;DHT22;3555;53.248;10.336;2023-07-31T05:05:00;15.30;99.90
7028;DHT22;3555;53.248;10.336;2023-07-31T05:07:28;15.30;99.90
7028;DHT22;3555;53.248;10.336;2023-07-31T05:09:55;15.30;99.90
7028;DHT22;3555;53.248;10.336;2023-07-31T05:12:22;15.30;99.90
7028;DHT22;3555;53.248;10.336;2023-07-31T05:14:49;15.40;99.90
7028;DHT22;3555;53.248;10.336;2023-07-31T05:17:15;15.30;99.90
7028;DHT22;3555;53.248;10.336;2023-07-31T05:19:42;15.40;99.90
7028;DHT22;3555;53.248;10.336;2023-07-31T05:22:09;15.30;99.90
7028;DHT22;3555;53.248;10.336;2023-07-31T05:24:37;15.30;99.90
7028;DHT22;3555;53.248;10.336;2023-07-31T05:27:05;15.40;99.90
7028;DHT22;3555;53.248;10.336;2023-07-31T05:29:32;15.40;99.90
7028;DHT22;3555;53.248;10.336;2023-07-31T05:31:59;15.50;99.90
7028;DHT22;3555;53.248;10.336;2023-07-31T05:34:26;15.50;99.90
7028;DHT22;3555;53.248;10.336;2023-07-31T05:36:52;15.70;99.90
7028;DHT22;3555;53.248;10.336;2023-07-31T05:39:19;15.70;99.90
7028;DHT22;3555;53.248;10.336;2023-07-31T05:41:48;15.80;99.90
7028;DHT22;3555;53.248;10.336;2023-07-31T05:44:14;15.70;99.90
7028;DHT22;3555;53.248;10.336;2023-07-31T05:46:41;15.70;99.90
7028;DHT22;3555;53.248;10.336;2023-07-31T05:49:08;15.70;99.90
7028;DHT22;3555;53.248;10.336;2023-07-31T05:51:35;15.70;99.90
7028;DHT22;3555;53.248;10.336;2023-07-31T05:54:02;15.70;99.90
7028;DHT22;3555;53.248;10.336;2023-07-31T05:56:29;15.70;99.90
7028;DHT22;3555;53.248;10.336;2023-07-31T05:58:58;15.70;99.90
7028;DHT22;3555;53.248;10.336;2023-07-31T06:01:25;15.70;99.90
7028;DHT22;3555;53.248;10.336;2023-07-31T06:03:52;15.80;99.90
7028;DHT22;3555;53.248;10.336;2023-07-31T06:06:19;15.80;99.90
7028;DHT22;3555;53.248;10.336;2023-07-31T06:08:46;15.80;99.90
7028;DHT22;3555;53.248;10.336;2023-07-31T06:11:12;15.90;99.90
7028;DHT22;3555;53.248;10.336;2023-07-31T06:13:39;16.00;99.90
7028;DHT22;3555;53.248;10.336;2023-07-31T06:16:08;16.00;99.90
7028;DHT22;3555;53.248;10.336;2023-07-31T06:18:34;16.00;99.90
7028;DHT22;3555;53.248;10.336;2023-07-31T06:21:01;16.10;99.90
7028;DHT22;3555;53.248;10.336;2023-07-31T06:23:28;16.00;99.90
7028;DHT22;3555;53.248;10.336;2023-07-31T06:25:55;16.00;99.90
7028;DHT22;3555;53.248;10.336;2023-07-31T06:28:27;16.00;99.90
7028;DHT22;3555;53.248;10.336;2023-07-31T06:30:54;16.10;99.90
7028;DHT22;3555;53.248;10.336;2023-07-31T06:33:22;16.10;99.90
7028;DHT22;3555;53.248;10.336;2023-07-31T06:35:49;16.20;99.90
7028;DHT22;3555;53.248;10.336;2023-07-31T06:38:18;16.20;99.90
7028;DHT22;3555;53.248;10.336;2023-07-31T06:40:45;16.10;99.90
7028;DHT22;3555;53.248;10.336;2023-07-31T06:43:12;16.10;99.90
7028;DHT22;3555;53.248;10.336;2023-07-31T06:45:38;16.10;99.90
7028;DHT22;3555;53.248;10.336;2023-07-31T06:48:05;16.10;99.90
7028;DHT22;3555;53.248;10.336;2023-07-31T06:50:34;16.40;99.90
7028;DHT22;3555;53.248;10.336;2023-07-31T06:53:01;16.30;99.90
7028;DHT22;3555;53.248;10.336;2023-07-31T06:55:28;16.30;99.90
7028;DHT22;3555;53.248;10.336;2023-07-31T06:57:55;16.40;99.90
7028;DHT22;3555;53.248;10.336;2023-07-31T07:00:23;16.40;99.90
7028;DHT22;3555;53.248;10.336;2023-07-31T07:02:50;16.50;99.90
7028;DHT22;3555;53.248;10.336;2023-07-31T07:05:17;16.50;99.90
7028;DHT22;3555;53.248;10.336;2023-07-31T07:07:46;16.60;99.90
7028;DHT22;3555;53.248;10.336;2023-07-31T07:10:13;16.60;99.90
7028;DHT22;3555;53.248;10.336;2023-07-31T07:12:39;16.60;99.90
7028;DHT22;3555;53.248;10.336;2023-07-31T07:15:07;16.60;99.90
7028;DHT22;3555;53.248;10.336;2023-07-31T07:17:34;16.60;99.90
7028;DHT22;3555;53.248;10.336;2023-07-31T07:20:01;16.70;99.90
7028;DHT22;3555;53.248;10.336;2023-07-31T07:22:29;16.70;99.90
7028;DHT22;3555;53.248;10.336;2023-07-31T07:24:57;16.80;99.90
7028;DHT22;3555;53.248;10.336;2023-07-31T07:27:24;16.80;99.90
7028;DHT22;3555;53.248;10.336;2023-07-31T07:29:51;16.80;99.90
7028;DHT22;3555;53.248;10.336;2023-07-31T07:32:19;16.70;99.90
7028;DHT22;3555;53.248;10.336;2023-07-31T07:34:46;16.70;99.90
7028;DHT22;3555;53.248;10.336;2023-07-31T07:37:14;16.70;99.90
7028;DHT22;3555;53.248;10.336;2023-07-31T07:39:41;16.80;99.90
7028;DHT22;3555;53.248;10.336;2023-07-31T07:42:09;16.80;99.90
7028;DHT22;3555;53.248;10.336;2023-07-31T07:44:36;16.70;99.90
7028;DHT22;3555;53.248;10.336;2023-07-31T07:47:03;16.80;99.90
7028;DHT22;3555;53.248;10.336;2023-07-31T07:49:32;16.70;99.90
7028;DHT22;3555;53.248;10.336;2023-07-31T07:51:59;16.70;99.90
7028;DHT22;3555;53.248;10.336;2023-07-31T07:54:26;16.80;99.90
7028;DHT22;3555;53.248;10.336;2023-07-31T07:56:53;16.80;99.90
7028;DHT22;3555;53.248;10.336;2023-07-31T07:59:21;16.90;99.90
7028;DHT22;3555;53.248;10.336;2023-07-31T08:01:48;16.80;99.90
7028;DHT22;3555;53.248;10.336;2023-07-31T08:04:14;16.70;99.90
7028;DHT22;3555;53.248;10.336;2023-07-31T08:06:41;16.70;99.90
7028;DHT22;3555;53.248;10.336;2023-07-31T08:09:08;16.70;99.90
7028;DHT22;3555;53.248;10.336;2023-07-31T08:11:35;16.90;99.90
7028;DHT22;3555;53.248;10.336;2023-07-31T08:14:02;16.90;99.90
7028;DHT22;3555;53.248;10.336;2023-07-31T08:16:30;16.80;99.90
7028;DHT22;3555;53.248;10.336;2023-07-31T08:18:57;16.80;99.90
7028;DHT22;3555;53.248;10.336;2023-07-31T08:21:24;16.80;99.90
7028;DHT22;3555;53.248;10.336;2023-07-31T08:23:51;16.90;99.90
7028;DHT22;3555;53.248;10.336;2023-07-31T08:26:18;16.90;99.90
7028;DHT22;3555;53.248;10.336;2023-07-31T08:28:45;16.90;99.90
7028;DHT22;3555;53.248;10.336;2023-07-31T08:31:12;16.90;99.90
7028;DHT22;3555;53.248;10.336;2023-07-31T08:33:40;16.90;99.90
7028;DHT22;3555;53.248;10.336;2023-07-31T08:36:07;16.70;99.90
7028;DHT22;3555;53.248;10.336;2023-07-31T08:38:34;16.70;99.90
7028;DHT22;3555;53.248;10.336;2023-07-31T08:41:03;16.60;99.90
7028;DHT22;3555;53.248;10.336;2023-07-31T08:43:30;16.50;99.90
7028;DHT22;3555;53.248;10.336;2023-07-31T08:45:57;16.50;99.90
7028;DHT22;3555;53.248;10.336;2023-07-31T08:48:24;16.60;99.90
7028;DHT22;3555;53.248;10.336;2023-07-31T08:50:53;16.60;99.90
7028;DHT22;3555;53.248;10.336;2023-07-31T08:53:20;16.70;99.90
7028;DHT22;3555;53.248;10.336;2023-07-31T08:55:48;16.50;99.90
7028;DHT22;3555;53.248;10.336;2023-07-31T08:58:17;16.50;99.90
7028;DHT22;3555;53.248;10.336;2023-07-31T09:00:46;16.50;99.90
7028;DHT22;3555;53.248;10.336;2023-07-31T09:03:14;16.60;99.90
7028;DHT22;3555;53.248;10.336;2023-07-31T09:05:43;16.70;99.90
7028;DHT22;3555;53.248;10.336;2023-07-31T09:08:13;16.80;99.90
7028;DHT22;3555;53.248;10.336;2023-07-31T09:10:41;16.80;99.90
7028;DHT22;3555;53.248;10.336;2023-07-31T09:13:09;16.90;99.90
7028;DHT22;3555;53.248;10.336;2023-07-31T09:15:36;16.90;99.90
7028;DHT22;3555;53.248;10.336;2023-07-31T09:18:04;16.90;99.90
7028;DHT22;3555;53.248;10.336;2023-07-31T09:20:32;16.90;99.90
7028;DHT22;3555;53.248;10.336;2023-07-31T09:23:06;16.90;99.90
7028;DHT22;3555;53.248;10.336;2023-07-31T09:25:35;17.00;99.90
7028;DHT22;3555;53.248;10.336;2023-07-31T09:28:04;17.00;99.90
7028;DHT22;3555;53.248;10.336;2023-07-31T09:30:32;17.00;99.90
7028;DHT22;3555;53.248;10.336;2023-07-31T09:33:10;17.10;99.90
7028;DHT22;3555;53.248;10.336;2023-07-31T09:35:37;17.10;99.90
7028;DHT22;3555;53.248;10.336;2023-07-31T09:38:07;17.10;99.90
7028;DHT22;3555;53.248;10.336;2023-07-31T09:40:36;17.20;99.90
7028;DHT22;3555;53.248;10.336;2023-07-31T09:43:05;17.20;99.90
7028;DHT22;3555;53.248;10.336;2023-07-31T09:45:34;17.20;99.90
7028;DHT22;3555;53.248;10.336;2023-07-31T09:48:02;17.20;99.90
7028;DHT22;3555;53.248;10.336;2023-07-31T09:50:30;17.40;99.90
7028;DHT22;3555;53.248;10.336;2023-07-31T09:52:56;17.40;99.90
7028;DHT22;3555;53.248;10.336;2023-07-31T09:55:24;17.30;99.90
7028;DHT22;3555;53.248;10.336;2023-07-31T09:57:54;17.40;99.90
7028;DHT22;3555;53.248;10.336;2023-07-31T10:00:24;17.50;99.90
7028;DHT22;3555;53.248;10.336;2023-07-31T10:02:54;17.60;99.90
7028;DHT22;3555;53.248;10.336;2023-07-31T10:05:21;17.50;99.90
7028;DHT22;3555;53.248;10.336;2023-07-31T10:07:52;17.50;99.90
7028;DHT22;3555;53.248;10.336;2023-07-31T10:10:20;17.50;99.90
7028;DHT22;3555;53.248;10.336;2023-07-31T10:12:48;17.50;99.90
7028;DHT22;3555;53.248;10.336;2023-07-31T10:15:17;17.60;99.90
7028;DHT22;3555;53.248;10.336;2023-07-31T10:17:47;17.60;99.90
7028;DHT22;3555;53.248;10.336;2023-07-31T10:20:15;17.70;99.90
7028;DHT22;3555;53.248;10.336;2023-07-31T10:22:43;17.70;99.90
7028;DHT22;3555;53.248;10.336;2023-07-31T10:25:11;17.80;99.90
7028;DHT22;3555;53.248;10.336;2023-07-31T10:27:39;17.90;99.90
7028;DHT22;3555;53.248;10.336;2023-07-31T10:30:08;18.00;99.90
7028;DHT22;3555;53.248;10.336;2023-07-31T10:32:38;18.10;99.90
7028;DHT22;3555;53.248;10.336;2023-07-31T10:35:06;18.20;99.90
7028;DHT22;3555;53.248;10.336;2023-07-31T10:37:37;18.30;99.90
7028;DHT22;3555;53.248;10.336;2023-07-31T10:40:06;18.20;99.90
7028;DHT22;3555;53.248;10.336;2023-07-31T10:42:35;18.10;99.90
7028;DHT22;3555;53.248;10.336;2023-07-31T10:45:04;18.20;99.90
7028;DHT22;3555;53.248;10.336;2023-07-31T10:47:31;18.20;99.90
7028;DHT22;3555;53.248;10.336;2023-07-31T10:50:17;18.10;99.90
7028;DHT22;3555;53.248;10.336;2023-07-31T10:52:47;18.10;99.90
7028;DHT22;3555;53.248;10.336;2023-07-31T10:55:25;18.10;99.90
7028;DHT22;3555;53.248;10.336;2023-07-31T10:57:52;18.00;99.90
7028;DHT22;3555;53.248;10.336;2023-07-31T11:00:25;18.00;99.90
7028;DHT22;3555;53.248;10.336;2023-07-31T11:03:00;18.00;99.90
7028;DHT22;3555;53.248;10.336;2023-07-31T11:05:49;18.10;99.90
7028;DHT22;3555;53.248;10.336;2023-07-31T11:08:18;18.10;99.90
7028;DHT22;3555;53.248;10.336;2023-07-31T11:10:47;18.10;99.90
7028;DHT22;3555;53.248;10.336;2023-07-31T11:13:14;18.10;99.90
7028;DHT22;3555;53.248;10.336;2023-07-31T11:15:41;18.10;99.90
7028;DHT22;3555;53.248;10.336;2023-07-31T11:18:08;18.20;99.90
7028;DHT22;3555;53.248;10.336;2023-07-31T11:20:37;18.10;99.90
7028;DHT22;3555;53.248;10.336;2023-07-31T11:23:06;18.10;99.90
7028;DHT22;3555;53.248;10.336;2023-07-31T11:25:34;18.00;99.90
7028;DHT22;3555;53.248;10.336;2023-07-31T11:28:05;18.10;99.90
7028;DHT22;3555;53.248;10.336;2023-07-31T11:30:33;18.10;99.90
7028;DHT22;3555;53.248;10.336;2023-07-31T11:33:01;18.20;99.90
7028;DHT22;3555;53.248;10.336;2023-07-31T11:35:30;18.30;99.90
7028;DHT22;3555;53.248;10.336;2023-07-31T11:37:57;18.40;99.90
7028;DHT22;3555;53.248;10.336;2023-07-31T11:40:25;18.40;99.90
7028;DHT22;3555;53.248;10.336;2023-07-31T11:42:55;18.40;99.90
7028;DHT22;3555;53.248;10.336;2023-07-31T11:45:25;18.30;99.90
7028;DHT22;3555;53.248;10.336;2023-07-31T11:47:54;18.40;99.90
7028;DHT22;3555;53.248;10.336;2023-07-31T11:50:22;18.40;99.90
7028;DHT22;3555;53.248;10.336;2023-07-31T11:52:54;18.30;99.90
7028;DHT22;3555;53.248;10.336;2023-07-31T11:55:22;18.30;99.90
7028;DHT22;3555;53.248;10.336;2023-07-31T11:57:52;18.30;99.90
7028;DHT22;3555;53.248;10.336;2023-07-31T12:00:21;18.30;99.90
7028;DHT22;3555;53.248;10.336;2023-07-31T12:02:49;18.30;99.90
7028;DHT22;3555;53.248;10.336;2023-07-31T12:05:16;18.30;99.90
7028;DHT22;3555;53.248;10.336;2023-07-31T12:07:48;18.30;99.90
7028;DHT22;3555;53.248;10.336;2023-07-31T12:10:25;18.30;99.90
7028;DHT22;3555;53.248;10.336;2023-07-31T12:12:59;18.20;99.90
7028;DHT22;3555;53.248;10.336;2023-07-31T12:15:37;18.30;99.90
7028;DHT22;3555;53.248;10.336;2023-07-31T12:18:07;18.30;99.90
7028;DHT22;3555;53.248;10.336;2023-07-31T12:20:34;18.30;99.90
7028;DHT22;3555;53.248;10.336;2023-07-31T12:23:04;18.40;99.90
7028;DHT22;3555;53.248;10.336;2023-07-31T12:25:32;18.30;99.90
7028;DHT22;3555;53.248;10.336;2023-07-31T12:28:06;18.40;99.90
7028;DHT22;3555;53.248;10.336;2023-07-31T12:30:37;18.40;99.90
7028;DHT22;3555;53.248;10.336;2023-07-31T12:33:05;18.40;99.90
7028;DHT22;3555;53.248;10.336;2023-07-31T12:35:40;18.40;99.90
7028;DHT22;3555;53.248;10.336;2023-07-31T12:38:07;18.40;99.90
7028;DHT22;3555;53.248;10.336;2023-07-31T12:40:37;18.30;99.90
7028;DHT22;3555;53.248;10.336;2023-07-31T12:43:05;18.30;99.90
7028;DHT22;3555;53.248;10.336;2023-07-31T12:45:33;18.30;99.90
7028;DHT22;3555;53.248;10.336;2023-07-31T12:48:00;18.40;99.90
7028;DHT22;3555;53.248;10.336;2023-07-31T12:50:28;18.40;99.90
7028;DHT22;3555;53.248;10.336;2023-07-31T12:52:54;18.40;99.90
7028;DHT22;3555;53.248;10.336;2023-07-31T12:55:22;18.40;99.90
7028;DHT22;3555;53.248;10.336;2023-07-31T12:57:49;18.40;99.90
7028;DHT22;3555;53.248;10.336;2023-07-31T13:00:17;18.30;99.90
7028;DHT22;3555;53.248;10.336;2023-07-31T13:02:44;18.30;99.90
7028;DHT22;3555;53.248;10.336;2023-07-31T13:05:11;18.30;99.90
7028;DHT22;3555;53.248;10.336;2023-07-31T13:07:39;18.30;99.90
7028;DHT22;3555;53.248;10.336;2023-07-31T13:10:07;18.40;99.90
7028;DHT22;3555;53.248;10.336;2023-07-31T13:12:34;18.40;99.90
7028;DHT22;3555;53.248;10.336;2023-07-31T13:15:01;18.40;99.90
7028;DHT22;3555;53.248;10.336;2023-07-31T13:17:29;18.40;99.90
7028;DHT22;3555;53.248;10.336;2023-07-31T13:19:56;18.30;99.90
7028;DHT22;3555;53.248;10.336;2023-07-31T13:22:23;18.40;99.90
7028;DHT22;3555;53.248;10.336;2023-07-31T13:24:49;18.40;99.90
7028;DHT22;3555;53.248;10.336;2023-07-31T13:27:16;18.40;99.90
7028;DHT22;3555;53.248;10.336;2023-07-31T13:29:45;18.30;99.90
7028;DHT22;3555;53.248;10.336;2023-07-31T13:32:12;18.30;99.90
7028;DHT22;3555;53.248;10.336;2023-07-31T13:34:40;18.40;99.90
7028;DHT22;3555;53.248;10.336;2023-07-31T13:37:07;18.50;99.90
7028;DHT22;3555;53.248;10.336;2023-07-31T13:39:34;18.50;99.90
7028;DHT22;3555;53.248;10.336;2023-07-31T13:42:02;18.40;99.90
7028;DHT22;3555;53.248;10.336;2023-07-31T13:44:29;18.20;99.90
7028;DHT22;3555;53.248;10.336;2023-07-31T13:46:56;18.20;99.90
7028;DHT22;3555;53.248;10.336;2023-07-31T13:49:22;18.20;99.90
7028;DHT22;3555;53.248;10.336;2023-07-31T13:51:51;18.20;99.90
7028;DHT22;3555;53.248;10.336;2023-07-31T13:54:18;18.10;99.90
7028;DHT22;3555;53.248;10.336;2023-07-31T13:56:45;18.10;99.90
7028;DHT22;3555;53.248;10.336;2023-07-31T13:59:12;18.10;99.90
7028;DHT22;3555;53.248;10.336;2023-07-31T14:01:40;18.10;99.90
7028;DHT22;3555;53.248;10.336;2023-07-31T14:04:07;18.10;99.90
7028;DHT22;3555;53.248;10.336;2023-07-31T14:06:34;18.10;99.90
7028;DHT22;3555;53.248;10.336;2023-07-31T14:09:02;18.10;99.90
7028;DHT22;3555;53.248;10.336;2023-07-31T14:11:30;18.30;99.90
7028;DHT22;3555;53.248;10.336;2023-07-31T14:13:58;18.20;99.90
7028;DHT22;3555;53.248;10.336;2023-07-31T14:16:25;18.30;99.90
7028;DHT22;3555;53.248;10.336;2023-07-31T14:18:51;18.30;99.90
7028;DHT22;3555;53.248;10.336;2023-07-31T14:21:19;18.10;99.90
7028;DHT22;3555;53.248;10.336;2023-07-31T14:23:45;18.10;99.90
7028;DHT22;3555;53.248;10.336;2023-07-31T14:26:13;18.10;99.90
7028;DHT22;3555;53.248;10.336;2023-07-31T14:28:40;18.10;99.90
7028;DHT22;3555;53.248;10.336;2023-07-31T14:31:07;18.00;99.90
7028;DHT22;3555;53.248;10.336;2023-07-31T14:33:34;18.00;99.90
7028;DHT22;3555;53.248;10.336;2023-07-31T14:36:01;18.00;99.90
7028;DHT22;3555;53.248;10.336;2023-07-31T14:38:28;18.10;99.90
7028;DHT22;3555;53.248;10.336;2023-07-31T14:40:55;18.00;99.90
7028;DHT22;3555;53.248;10.336;2023-07-31T14:43:24;18.00;99.90
7028;DHT22;3555;53.248;10.336;2023-07-31T14:45:51;18.10;99.90
7028;DHT22;3555;53.248;10.336;2023-07-31T14:48:18;18.10;99.90
7028;DHT22;3555;53.248;10.336;2023-07-31T14:50:45;18.20;99.90
7028;DHT22;3555;53.248;10.336;2023-07-31T14:53:12;18.10;99.90
7028;DHT22;3555;53.248;10.336;2023-07-31T14:55:39;18.20;99.90
7028;DHT22;3555;53.248;10.336;2023-07-31T14:58:06;18.20;99.90
7028;DHT22;3555;53.248;10.336;2023-07-31T15:00:34;18.30;99.90
7028;DHT22;3555;53.248;10.336;2023-07-31T15:03:02;18.20;99.90
7028;DHT22;3555;53.248;10.336;2023-07-31T15:05:29;18.20;99.90
7028;DHT22;3555;53.248;10.336;2023-07-31T15:07:55;18.10;99.90
7028;DHT22;3555;53.248;10.336;2023-07-31T15:10:22;18.10;99.90
7028;DHT22;3555;53.248;10.336;2023-07-31T15:12:49;18.10;99.90
7028;DHT22;3555;53.248;10.336;2023-07-31T15:15:16;18.00;99.90
7028;DHT22;3555;53.248;10.336;2023-07-31T15:17:44;18.00;99.90
7028;DHT22;3555;53.248;10.336;2023-07-31T15:20:11;18.00;99.90
7028;DHT22;3555;53.248;10.336;2023-07-31T15:22:38;18.00;99.90
7028;DHT22;3555;53.248;10.336;2023-07-31T15:25:06;18.00;99.90
7028;DHT22;3555;53.248;10.336;2023-07-31T15:27:33;18.10;99.90
7028;DHT22;3555;53.248;10.336;2023-07-31T15:30:00;18.10;99.90
7028;DHT22;3555;53.248;10.336;2023-07-31T15:32:29;18.10;99.90
7028;DHT22;3555;53.248;10.336;2023-07-31T15:34:58;18.10;99.90
7028;DHT22;3555;53.248;10.336;2023-07-31T15:37:24;18.00;99.90
7028;DHT22;3555;53.248;10.336;2023-07-31T15:39:51;18.00;99.90
7028;DHT22;3555;53.248;10.336;2023-07-31T15:42:18;18.00;99.90
7028;DHT22;3555;53.248;10.336;2023-07-31T15:44:45;18.10;99.90
7028;DHT22;3555;53.248;10.336;2023-07-31T15:47:12;18.10;99.90
7028;DHT22;3555;53.248;10.336;2023-07-31T15:49:39;18.10;99.90